Pagina principală
METAR-TAF:

METAR-TAF

Aeroporturi :

Perth, Australia

Latitudine: 31-56S, longitudine: 115-57E, elevație: 20 m

Observații meteo curente

Raportul a fost făcut în urmă cu 29 de minute, la 17:00 UTC
Vânt 5 kt de la Nord-est
Temperatură 10°C
Umiditate 53%
Presiune 1021 hPa
Vizibilitate de 10 km sau mai mult
nu există nori sub 1.500 m și nici cumulonimbus

METAR: YPPH 201700Z 05005KT CAVOK 10/01 Q1021

Ora: 01:29 (17:29 UTC)

Prognoză

Raportul a fost făcut în urmă cu 53 de minute, la 16:36 UTC
Prognoză valabilă de la 20 ora 16 UTC la 21 ora 18 UTC
Vânt 8 kt de la Nord/Nord-est
Vizibilitate de 10 km sau mai mult
nu există nori sub 1.500 m și nici cumulonimbus
De la 21 ora 0600 UTC
Vânt 10 kt de la Sud-vest
Vizibilitate de 10 km sau mai mult
nu există nori sub 1.500 m și nici cumulonimbus

TAF: YPPH 201636Z 2016/2118 03008KT CAVOK FM210600 23010KT CAVOK

Observații și prognoze meteo pentru peste 4.000 de aeroporturi (rapoarte METAR și TAF).

Stațiile disponibile sunt reprezentate pe hartă prin puncte galbene și roșii.

Țineți indicatorul mouse-ului pe punctul dorit pentru a vedea denumirea stației.

Apoi, faceți clic pentru a vedea observațiile și prognozele meteorologice.

Pentru a schimba harta: Pentru mărire, faceți clic pe butoanele verzi cu cruce neagră; pentru micșorare, pe butonul verde cu o liniuță; pentru hărți învecinate, pe săgețile verzi.


METAR-TAF: